HomeShort term forecast

Short term forecast

Graphical weather forecast for the next 48 hours for Montreal:
Short term forecast
This weather forecast is automatically refreshed every 3 hours.

Hourly Experimental Forecast for the next 48 hours

Overall summary: Mostly cloudy throughout the day.

 Date & Hour   Temp   Feel   Baro   Hum   Speed & Bearing   Wind Gust   Precip.%   Precip.   Visibility   Cloud cover   Conditions 
 23/06/2018 - 12:00  22.2°C  22.2°C  1011.9 hPa  58%  8.9 km/h   13.1 km/h  40%  0.06 mm/h  16.1km  83%  Mostly Cloudy 
 23/06/2018 - 13:00  22.9°C  22.9°C  1011.6 hPa  53%  11.5 km/h   15.9 km/h  15%  0.08 mm/h  16.1km  85%  Mostly Cloudy 
 23/06/2018 - 14:00  22.7°C  22.7°C  1011.1 hPa  48%  13.8 km/h   19.7 km/h  4%  0.08 mm/h  16.1km  80%  Mostly Cloudy 
 23/06/2018 - 15:00  22.2°C  22.2°C  1010.5 hPa  47%  14.6 km/h   21.3 km/h  3%  0.04 mm/h  16.1km  90%  Mostly Cloudy 
 23/06/2018 - 16:00  21.3°C  21.3°C  1010.0 hPa  51%  15.2 km/h   22.6 km/h  5%  0.10 mm/h  16.1km  94%  Overcast 
 23/06/2018 - 17:00  20.9°C  20.9°C  1009.6 hPa  53%  15.7 km/h   24.3 km/h  4%  0.05 mm/h  16.1km  80%  Mostly Cloudy 
 23/06/2018 - 18:00  20.3°C  20.3°C  1009.3 hPa  57%  14.0 km/h   25.5 km/h  15%  0.24 mm/h  16.1km  82%  Mostly Cloudy 
 23/06/2018 - 19:00  19.7°C  19.7°C  1009.0 hPa  61%  12.3 km/h   26.2 km/h  4%  0.03 mm/h  16.1km  87%  Mostly Cloudy 
 23/06/2018 - 20:00  18.7°C  18.7°C  1008.9 hPa  67%  11.0 km/h   27.9 km/h  5%  0.04 mm/h  16.1km  89%  Mostly Cloudy 
 23/06/2018 - 21:00  17.9°C  17.9°C  1008.9 hPa  70%  9.8 km/h   28.1 km/h  7%  0.08 mm/h  16.1km  92%  Mostly Cloudy 
 23/06/2018 - 22:00  17.5°C  17.5°C  1008.8 hPa  71%  9.7 km/h   20.6 km/h  8%  0.08 mm/h  16.1km  88%  Mostly Cloudy 
 23/06/2018 - 23:00  17.0°C  17.0°C  1008.7 hPa  73%  9.2 km/h   18.5 km/h  7%  0.04 mm/h  16.1km  89%  Mostly Cloudy 
 24/06/2018 - 00:00  16.7°C  16.7°C  1008.6 hPa  76%  8.2 km/h   15.7 km/h  7%  0.03 mm/h  16.1km  88%  Mostly Cloudy 
 24/06/2018 - 01:00  15.7°C  15.7°C  1008.5 hPa  80%  7.2 km/h   14.3 km/h  30%  0.16 mm/h  16.1km  87%  Mostly Cloudy 
 24/06/2018 - 02:00  15.4°C  15.4°C  1008.2 hPa  82%  6.4 km/h   12.6 km/h  43%  0.27 mm/h  16.1km  85%  Mostly Cloudy 
 24/06/2018 - 03:00  15.1°C  15.1°C  1008.0 hPa  83%  5.8 km/h   11.6 km/h  38%  0.21 mm/h  16.1km  88%  Mostly Cloudy 
 24/06/2018 - 04:00  14.7°C  14.7°C  1008.0 hPa  85%  5.5 km/h   11.0 km/h  17%  0.11 mm/h  16.1km  94%  Overcast 
 24/06/2018 - 05:00  14.5°C  14.5°C  1008.1 hPa  86%  5.3 km/h   10.7 km/h  7%  0.06 mm/h  16.1km  98%  Overcast 
 24/06/2018 - 06:00  14.6°C  14.6°C  1008.2 hPa  86%  5.7 km/h   10.5 km/h  6%  0.04 mm/h  16.1km  99%  Overcast 
 24/06/2018 - 07:00  15.3°C  15.3°C  1008.6 hPa  84%  6.1 km/h   10.4 km/h  6%  0.04 mm/h  16.1km  99%  Overcast 
 24/06/2018 - 08:00  15.8°C  15.8°C  1008.9 hPa  83%  6.3 km/h   9.9 km/h  6%  0.03 mm/h  16.1km  99%  Overcast 
 24/06/2018 - 09:00  16.4°C  16.4°C  1009.1 hPa  80%  5.8 km/h   8.3 km/h  5%  0.02 mm/h  16.1km  99%  Overcast 
 24/06/2018 - 10:00  17.1°C  17.1°C  1009.3 hPa  77%  5.0 km/h   6.3 km/h  4%  0.02 mm/h  16.1km  99%  Overcast 
 24/06/2018 - 11:00  17.9°C  17.9°C  1009.6 hPa  75%  4.8 km/h   5.1 km/h  3%  0.01 mm/h  16.1km  99%  Overcast 
 24/06/2018 - 12:00  18.7°C  18.7°C  1009.7 hPa  72%  4.5 km/h   5.2 km/h  4%  0.01 mm/h  16.1km  99%  Overcast 
 24/06/2018 - 13:00  20.2°C  20.2°C  1009.6 hPa  67%  4.9 km/h   6.0 km/h  0%  --  16.1km  99%  Overcast 
 24/06/2018 - 14:00  21.3°C  21.3°C  1009.6 hPa  63%  5.1 km/h   6.6 km/h  3%  0.01 mm/h  16.1km  98%  Overcast 
 24/06/2018 - 15:00  21.9°C  21.9°C  1009.7 hPa  63%  5.6 km/h   5.7 km/h  5%  0.08 mm/h  16.1km  99%  Overcast 
 24/06/2018 - 16:00  21.4°C  21.4°C  1009.8 hPa  68%  6.0 km/h   6.5 km/h  18%  0.44 mm/h  16.1km  100%  Overcast 
 24/06/2018 - 17:00  20.5°C  20.5°C  1010.1 hPa  73%  7.1 km/h   7.5 km/h  34%  0.97 mm/h  16.1km  100%  Light Rain 
 24/06/2018 - 18:00  19.3°C  19.4°C  1010.6 hPa  79%  8.5 km/h   15.0 km/h  48%  1.03 mm/h  16.1km  100%  Light Rain 
 24/06/2018 - 19:00  18.3°C  18.3°C  1011.3 hPa  83%  11.0 km/h   26.8 km/h  69%  2.49 mm/h  16.1km  100%  Rain 
 24/06/2018 - 20:00  16.9°C  17.0°C  1012.0 hPa  87%  15.1 km/h   34.7 km/h  77%  2.02 mm/h  14.6km  100%  Rain 
 24/06/2018 - 21:00  16.3°C  16.3°C  1012.7 hPa  89%  14.5 km/h   34.1 km/h  76%  1.29 mm/h  14.1km  100%  Light Rain 
 24/06/2018 - 22:00  15.9°C  15.9°C  1013.4 hPa  88%  12.0 km/h   28.7 km/h  69%  1.07 mm/h  14.0km  100%  Light Rain 
 24/06/2018 - 23:00  15.6°C  15.6°C  1014.0 hPa  87%  9.9 km/h   23.3 km/h  58%  0.89 mm/h  14.0km  100%  Light Rain 
 25/06/2018 - 00:00  15.5°C  15.5°C  1014.3 hPa  85%  9.0 km/h   20.4 km/h  24%  0.42 mm/h  14.7km  93%  Mostly Cloudy 
 25/06/2018 - 01:00  15.4°C  15.4°C  1014.4 hPa  83%  8.7 km/h   18.1 km/h  5%  0.09 mm/h  16.1km  67%  Mostly Cloudy 
 25/06/2018 - 02:00  15.2°C  15.2°C  1014.6 hPa  81%  8.4 km/h   16.1 km/h  2%  0.01 mm/h  16.1km  63%  Mostly Cloudy 
 25/06/2018 - 03:00  14.4°C  14.4°C  1014.9 hPa  81%  9.1 km/h   14.0 km/h  0%  --  16.1km  65%  Mostly Cloudy 
 25/06/2018 - 04:00  13.5°C  13.5°C  1015.3 hPa  81%  9.3 km/h   12.1 km/h  0%  --  16.1km  55%  Partly Cloudy 
 25/06/2018 - 05:00  12.8°C  12.8°C  1015.7 hPa  80%  9.1 km/h   10.9 km/h  0%  --  16.1km  39%  Partly Cloudy 
 25/06/2018 - 06:00  12.8°C  12.8°C  1016.4 hPa  78%  10.2 km/h   10.6 km/h  0%  --  16.1km  34%  Partly Cloudy 
 25/06/2018 - 07:00  13.7°C  13.7°C  1017.3 hPa  73%  11.5 km/h   11.6 km/h  0%  --  16.1km  43%  Partly Cloudy 
 25/06/2018 - 08:00  15.2°C  15.2°C  1018.1 hPa  65%  12.0 km/h   12.1 km/h  0%  --  16.1km  43%  Partly Cloudy 
 25/06/2018 - 09:00  16.5°C  16.5°C  1018.6 hPa  59%  12.6 km/h   12.7 km/h  0%  --  16.1km  47%  Partly Cloudy 
 25/06/2018 - 10:00  17.6°C  17.6°C  1018.7 hPa  53%  13.2 km/h   13.9 km/h  0%  --  16.1km  50%  Partly Cloudy 
 25/06/2018 - 11:00  18.6°C  18.6°C  1018.9 hPa  49%  13.3 km/h   15.4 km/h  0%  --  16.1km  40%  Partly Cloudy 
Test

 

Past weather and reports

Past weatherFind in this section the past weather conditions, weather archive, graphics, reports and statistics.

Current conditions

Current weather condition for MontrealAll you need to know about the current weather conditions for Montreal. Weather data is updated every 10 minutes.

Weather forecast

Current Montreal weatherSince 2004, celinium.com website has provided accurate weather forecast for Montreal's island.